sensor_id;sensor_type;location;lat;lon;timestamp;pressure;altitude;pressure_sealevel;temperature;humidity
15308;BME280;7755;52.208;6.964;2023-02-05T00:01:18;103304.84;;;5.46;100.00
15308;BME280;7755;52.208;6.964;2023-02-05T00:05:21;103291.63;;;5.53;100.00
15308;BME280;7755;52.208;6.964;2023-02-05T00:09:24;103280.41;;;5.58;100.00
15308;BME280;7755;52.208;6.964;2023-02-05T00:13:30;103272.84;;;5.61;100.00
15308;BME280;7755;52.208;6.964;2023-02-05T00:17:34;103265.34;;;5.65;100.00
15308;BME280;7755;52.208;6.964;2023-02-05T00:21:37;103266.72;;;5.69;100.00
15308;BME280;7755;52.208;6.964;2023-02-05T00:25:40;103256.50;;;5.72;100.00
15308;BME280;7755;52.208;6.964;2023-02-05T00:29:44;103246.13;;;5.68;100.00
15308;BME280;7755;52.208;6.964;2023-02-05T00:33:48;103229.56;;;5.53;100.00
15308;BME280;7755;52.208;6.964;2023-02-05T00:37:52;103227.44;;;5.57;100.00
15308;BME280;7755;52.208;6.964;2023-02-05T00:41:54;103225.28;;;5.60;100.00
15308;BME280;7755;52.208;6.964;2023-02-05T00:45:59;103216.66;;;5.57;100.00
15308;BME280;7755;52.208;6.964;2023-02-05T00:50:03;103204.00;;;5.57;100.00
15308;BME280;7755;52.208;6.964;2023-02-05T00:54:06;103209.41;;;5.57;100.00
15308;BME280;7755;52.208;6.964;2023-02-05T00:58:09;103216.91;;;5.63;100.00
15308;BME280;7755;52.208;6.964;2023-02-05T01:02:13;103215.75;;;5.66;100.00
15308;BME280;7755;52.208;6.964;2023-02-05T01:06:17;103202.09;;;5.67;100.00
15308;BME280;7755;52.208;6.964;2023-02-05T01:10:21;103210.47;;;5.74;100.00
15308;BME280;7755;52.208;6.964;2023-02-05T01:14:24;103219.41;;;5.74;100.00
15308;BME280;7755;52.208;6.964;2023-02-05T01:18:28;103201.94;;;5.79;100.00
15308;BME280;7755;52.208;6.964;2023-02-05T01:22:31;103200.41;;;5.76;100.00
15308;BME280;7755;52.208;6.964;2023-02-05T01:26:34;103183.19;;;5.77;100.00
15308;BME280;7755;52.208;6.964;2023-02-05T01:30:37;103177.94;;;5.75;100.00
15308;BME280;7755;52.208;6.964;2023-02-05T01:34:41;103190.19;;;5.70;100.00
15308;BME280;7755;52.208;6.964;2023-02-05T01:38:46;103183.94;;;5.69;100.00
15308;BME280;7755;52.208;6.964;2023-02-05T01:42:49;103184.25;;;5.57;100.00
15308;BME280;7755;52.208;6.964;2023-02-05T01:46:53;103186.13;;;5.56;100.00
15308;BME280;7755;52.208;6.964;2023-02-05T01:51:00;103210.78;;;5.61;100.00
15308;BME280;7755;52.208;6.964;2023-02-05T01:55:06;103218.50;;;5.56;100.00
15308;BME280;7755;52.208;6.964;2023-02-05T01:59:13;103199.59;;;5.56;100.00
15308;BME280;7755;52.208;6.964;2023-02-05T02:03:17;103193.22;;;5.57;100.00
15308;BME280;7755;52.208;6.964;2023-02-05T02:07:23;103197.28;;;5.61;100.00
15308;BME280;7755;52.208;6.964;2023-02-05T02:11:27;103185.22;;;5.65;100.00
15308;BME280;7755;52.208;6.964;2023-02-05T02:15:32;103186.91;;;5.66;100.00
15308;BME280;7755;52.208;6.964;2023-02-05T02:19:40;103183.94;;;5.69;100.00
15308;BME280;7755;52.208;6.964;2023-02-05T02:23:56;103176.22;;;5.74;100.00
15308;BME280;7755;52.208;6.964;2023-02-05T02:28:08;103162.63;;;5.76;100.00
15308;BME280;7755;52.208;6.964;2023-02-05T02:32:15;103158.06;;;5.77;100.00
15308;BME280;7755;52.208;6.964;2023-02-05T02:36:24;103153.78;;;5.74;100.00
15308;BME280;7755;52.208;6.964;2023-02-05T02:40:35;103150.94;;;5.75;100.00
15308;BME280;7755;52.208;6.964;2023-02-05T02:44:45;103128.66;;;5.73;100.00
15308;BME280;7755;52.208;6.964;2023-02-05T02:48:51;103118.16;;;5.70;100.00
15308;BME280;7755;52.208;6.964;2023-02-05T02:53:00;103114.75;;;5.68;100.00
15308;BME280;7755;52.208;6.964;2023-02-05T02:57:06;103117.16;;;5.71;100.00
15308;BME280;7755;52.208;6.964;2023-02-05T03:01:11;103104.78;;;5.69;100.00
15308;BME280;7755;52.208;6.964;2023-02-05T03:05:19;103107.50;;;5.69;100.00
15308;BME280;7755;52.208;6.964;2023-02-05T03:09:26;103093.03;;;5.70;100.00
15308;BME280;7755;52.208;6.964;2023-02-05T03:13:31;103096.25;;;5.73;100.00
15308;BME280;7755;52.208;6.964;2023-02-05T03:17:39;103093.41;;;5.75;100.00
15308;BME280;7755;52.208;6.964;2023-02-05T03:21:45;103094.25;;;5.75;100.00
15308;BME280;7755;52.208;6.964;2023-02-05T03:25:49;103089.72;;;5.76;100.00
15308;BME280;7755;52.208;6.964;2023-02-05T03:29:58;103082.31;;;5.78;100.00
15308;BME280;7755;52.208;6.964;2023-02-05T03:34:08;103086.56;;;5.81;100.00
15308;BME280;7755;52.208;6.964;2023-02-05T03:38:34;103096.22;;;5.83;100.00
15308;BME280;7755;52.208;6.964;2023-02-05T03:42:46;103101.88;;;5.90;100.00
15308;BME280;7755;52.208;6.964;2023-02-05T03:46:59;103105.13;;;5.93;100.00
15308;BME280;7755;52.208;6.964;2023-02-05T03:51:16;103108.00;;;5.92;100.00
15308;BME280;7755;52.208;6.964;2023-02-05T03:55:28;103105.53;;;5.98;100.00
15308;BME280;7755;52.208;6.964;2023-02-05T03:59:34;103112.63;;;5.99;100.00
15308;BME280;7755;52.208;6.964;2023-02-05T04:03:39;103111.88;;;6.07;100.00
15308;BME280;7755;52.208;6.964;2023-02-05T04:07:45;103102.31;;;6.13;100.00
15308;BME280;7755;52.208;6.964;2023-02-05T04:11:48;103104.41;;;6.19;100.00
15308;BME280;7755;52.208;6.964;2023-02-05T04:15:54;103089.59;;;6.23;100.00
15308;BME280;7755;52.208;6.964;2023-02-05T04:19:57;103086.59;;;6.26;100.00
15308;BME280;7755;52.208;6.964;2023-02-05T04:24:02;103099.78;;;6.29;100.00
15308;BME280;7755;52.208;6.964;2023-02-05T04:28:08;103082.59;;;6.30;100.00
15308;BME280;7755;52.208;6.964;2023-02-05T04:32:11;103077.88;;;6.32;100.00
15308;BME280;7755;52.208;6.964;2023-02-05T04:36:14;103092.75;;;6.36;100.00
15308;BME280;7755;52.208;6.964;2023-02-05T04:40:19;103089.59;;;6.41;100.00
15308;BME280;7755;52.208;6.964;2023-02-05T04:44:22;103097.44;;;6.44;100.00
15308;BME280;7755;52.208;6.964;2023-02-05T04:48:25;103097.25;;;6.45;100.00
15308;BME280;7755;52.208;6.964;2023-02-05T04:52:28;103099.63;;;6.48;100.00
15308;BME280;7755;52.208;6.964;2023-02-05T04:56:34;103080.56;;;6.50;100.00
15308;BME280;7755;52.208;6.964;2023-02-05T05:00:37;103086.69;;;6.52;100.00
15308;BME280;7755;52.208;6.964;2023-02-05T05:04:39;103080.44;;;6.51;100.00
15308;BME280;7755;52.208;6.964;2023-02-05T05:08:44;103072.84;;;6.55;100.00
15308;BME280;7755;52.208;6.964;2023-02-05T05:12:48;103063.59;;;6.57;100.00
15308;BME280;7755;52.208;6.964;2023-02-05T05:16:51;103066.66;;;6.63;100.00
15308;BME280;7755;52.208;6.964;2023-02-05T05:20:54;103060.97;;;6.66;100.00
15308;BME280;7755;52.208;6.964;2023-02-05T05:24:56;103059.25;;;6.65;100.00
15308;BME280;7755;52.208;6.964;2023-02-05T05:29:01;103068.91;;;6.67;100.00
15308;BME280;7755;52.208;6.964;2023-02-05T05:33:04;103072.00;;;6.72;100.00
15308;BME280;7755;52.208;6.964;2023-02-05T05:37:07;103056.78;;;6.71;100.00
15308;BME280;7755;52.208;6.964;2023-02-05T05:41:16;103056.63;;;6.73;100.00
15308;BME280;7755;52.208;6.964;2023-02-05T05:45:39;103047.31;;;6.75;100.00
15308;BME280;7755;52.208;6.964;2023-02-05T05:49:42;103053.44;;;6.77;100.00
15308;BME280;7755;52.208;6.964;2023-02-05T05:53:46;103054.81;;;6.81;100.00
15308;BME280;7755;52.208;6.964;2023-02-05T05:57:49;103052.78;;;6.83;100.00
15308;BME280;7755;52.208;6.964;2023-02-05T06:01:53;103041.13;;;6.83;100.00
15308;BME280;7755;52.208;6.964;2023-02-05T06:05:56;103031.88;;;6.86;100.00
15308;BME280;7755;52.208;6.964;2023-02-05T06:09:58;103037.28;;;6.86;100.00
15308;BME280;7755;52.208;6.964;2023-02-05T06:14:01;103046.25;;;6.86;100.00
15308;BME280;7755;52.208;6.964;2023-02-05T06:18:06;103034.56;;;6.86;100.00
15308;BME280;7755;52.208;6.964;2023-02-05T06:22:09;103022.91;;;6.85;100.00
15308;BME280;7755;52.208;6.964;2023-02-05T06:26:13;103021.06;;;6.86;100.00
15308;BME280;7755;52.208;6.964;2023-02-05T06:30:16;103010.06;;;6.87;100.00
15308;BME280;7755;52.208;6.964;2023-02-05T06:34:21;103010.25;;;6.86;100.00
15308;BME280;7755;52.208;6.964;2023-02-05T06:38:23;103015.66;;;6.86;100.00
15308;BME280;7755;52.208;6.964;2023-02-05T06:42:26;103018.88;;;6.89;100.00
15308;BME280;7755;52.208;6.964;2023-02-05T06:46:29;103017.72;;;6.92;100.00
15308;BME280;7755;52.208;6.964;2023-02-05T06:50:33;103014.00;;;6.93;100.00
15308;BME280;7755;52.208;6.964;2023-02-05T06:54:36;103013.66;;;6.96;100.00
15308;BME280;7755;52.208;6.964;2023-02-05T06:58:39;103022.50;;;6.98;100.00
15308;BME280;7755;52.208;6.964;2023-02-05T07:02:44;103009.94;;;6.97;100.00
15308;BME280;7755;52.208;6.964;2023-02-05T07:06:48;103020.78;;;6.97;100.00
15308;BME280;7755;52.208;6.964;2023-02-05T07:10:51;103024.53;;;7.04;100.00
15308;BME280;7755;52.208;6.964;2023-02-05T07:14:54;103017.97;;;7.06;100.00
15308;BME280;7755;52.208;6.964;2023-02-05T07:18:56;103024.22;;;7.07;100.00
15308;BME280;7755;52.208;6.964;2023-02-05T07:23:00;103030.94;;;7.03;100.00
15308;BME280;7755;52.208;6.964;2023-02-05T07:27:03;103036.00;;;6.98;100.00
15308;BME280;7755;52.208;6.964;2023-02-05T07:31:08;103050.63;;;6.87;100.00
15308;BME280;7755;52.208;6.964;2023-02-05T07:35:11;103060.38;;;6.80;100.00
15308;BME280;7755;52.208;6.964;2023-02-05T07:39:15;103065.03;;;6.70;100.00
15308;BME280;7755;52.208;6.964;2023-02-05T07:43:22;103080.66;;;6.58;100.00
15308;BME280;7755;52.208;6.964;2023-02-05T07:47:25;103093.72;;;6.45;100.00
15308;BME280;7755;52.208;6.964;2023-02-05T07:51:28;103097.88;;;6.39;100.00
15308;BME280;7755;52.208;6.964;2023-02-05T07:55:33;103103.03;;;6.33;100.00
15308;BME280;7755;52.208;6.964;2023-02-05T07:59:36;103112.19;;;6.22;100.00
15308;BME280;7755;52.208;6.964;2023-02-05T08:03:44;103112.59;;;6.27;100.00
15308;BME280;7755;52.208;6.964;2023-02-05T08:07:47;103124.34;;;6.18;100.00
15308;BME280;7755;52.208;6.964;2023-02-05T08:11:51;103136.88;;;6.09;100.00
15308;BME280;7755;52.208;6.964;2023-02-05T08:15:54;103136.75;;;6.11;100.00
15308;BME280;7755;52.208;6.964;2023-02-05T08:19:57;103125.81;;;6.02;100.00
15308;BME280;7755;52.208;6.964;2023-02-05T08:24:07;103125.69;;;6.04;100.00
15308;BME280;7755;52.208;6.964;2023-02-05T08:28:12;103120.28;;;6.04;100.00
15308;BME280;7755;52.208;6.964;2023-02-05T08:32:15;103122.44;;;6.00;100.00
15308;BME280;7755;52.208;6.964;2023-02-05T08:36:17;103109.09;;;5.99;100.00
15308;BME280;7755;52.208;6.964;2023-02-05T08:53:24;103121.06;;;6.14;100.00
15308;BME280;7755;52.208;6.964;2023-02-05T08:57:28;103111.34;;;6.21;100.00
15308;BME280;7755;52.208;6.964;2023-02-05T09:01:30;103111.69;;;6.18;100.00
15308;BME280;7755;52.208;6.964;2023-02-05T09:05:33;103108.66;;;6.21;100.00
15308;BME280;7755;52.208;6.964;2023-02-05T09:09:38;103105.34;;;6.27;100.00
15308;BME280;7755;52.208;6.964;2023-02-05T09:13:40;103104.91;;;6.32;100.00
15308;BME280;7755;52.208;6.964;2023-02-05T09:17:43;103094.25;;;6.31;100.00
15308;BME280;7755;52.208;6.964;2023-02-05T09:21:46;103107.03;;;6.28;100.00
15308;BME280;7755;52.208;6.964;2023-02-05T09:25:50;103099.53;;;6.22;100.00
15308;BME280;7755;52.208;6.964;2023-02-05T09:29:53;103117.56;;;6.32;100.00
15308;BME280;7755;52.208;6.964;2023-02-05T09:33:56;103119.88;;;6.26;100.00
15308;BME280;7755;52.208;6.964;2023-02-05T09:37:59;103118.63;;;6.21;100.00
15308;BME280;7755;52.208;6.964;2023-02-05T09:42:10;103119.88;;;6.26;100.00
15308;BME280;7755;52.208;6.964;2023-02-05T09:46:24;103110.22;;;6.24;100.00
15308;BME280;7755;52.208;6.964;2023-02-05T09:50:29;103128.38;;;6.32;100.00
15308;BME280;7755;52.208;6.964;2023-02-05T09:54:35;103125.09;;;6.28;100.00
15308;BME280;7755;52.208;6.964;2023-02-05T09:58:43;103132.06;;;6.31;100.00
15308;BME280;7755;52.208;6.964;2023-02-05T10:02:52;103136.63;;;6.30;100.00
15308;BME280;7755;52.208;6.964;2023-02-05T10:07:10;103120.41;;;6.30;100.00
15308;BME280;7755;52.208;6.964;2023-02-05T10:11:19;103113.16;;;6.31;100.00
15308;BME280;7755;52.208;6.964;2023-02-05T10:15:36;103115.53;;;6.34;100.00
15308;BME280;7755;52.208;6.964;2023-02-05T10:19:57;103128.38;;;6.32;100.00
15308;BME280;7755;52.208;6.964;2023-02-05T10:24:24;103119.50;;;6.39;100.00
15308;BME280;7755;52.208;6.964;2023-02-05T10:33:20;103133.69;;;6.41;100.00
15308;BME280;7755;52.208;6.964;2023-02-05T10:37:35;103154.16;;;6.44;100.00
15308;BME280;7755;52.208;6.964;2023-02-05T10:41:43;103157.09;;;6.50;100.00
15308;BME280;7755;52.208;6.964;2023-02-05T10:45:48;103153.94;;;6.55;100.00
15308;BME280;7755;52.208;6.964;2023-02-05T10:49:56;103150.09;;;6.57;100.00
15308;BME280;7755;52.208;6.964;2023-02-05T10:54:02;103162.59;;;6.59;100.00
15308;BME280;7755;52.208;6.964;2023-02-05T10:58:31;103182.75;;;6.64;100.00
15308;BME280;7755;52.208;6.964;2023-02-05T11:02:39;103203.22;;;6.67;100.00
15308;BME280;7755;52.208;6.964;2023-02-05T11:06:47;103187.53;;;6.70;100.00
15308;BME280;7755;52.208;6.964;2023-02-05T11:10:52;103203.13;;;6.76;100.00
15308;BME280;7755;52.208;6.964;2023-02-05T11:14:57;103209.94;;;6.80;100.00
15308;BME280;7755;52.208;6.964;2023-02-05T11:19:00;103209.94;;;6.80;100.00
15308;BME280;7755;52.208;6.964;2023-02-05T11:23:07;103215.59;;;6.87;100.00
15308;BME280;7755;52.208;6.964;2023-02-05T11:27:28;103240.31;;;6.92;100.00
15308;BME280;7755;52.208;6.964;2023-02-05T11:31:32;103254.38;;;6.96;100.00
15308;BME280;7755;52.208;6.964;2023-02-05T11:35:37;103268.50;;;6.90;100.00
15308;BME280;7755;52.208;6.964;2023-02-05T11:39:41;103285.03;;;6.87;100.00
15308;BME280;7755;52.208;6.964;2023-02-05T11:43:48;103273.22;;;6.88;100.00
15308;BME280;7755;52.208;6.964;2023-02-05T11:47:52;103295.66;;;6.98;100.00
15308;BME280;7755;52.208;6.964;2023-02-05T11:51:56;103295.34;;;7.01;100.00
15308;BME280;7755;52.208;6.964;2023-02-05T11:56:12;103296.88;;;7.03;100.00
15308;BME280;7755;52.208;6.964;2023-02-05T12:00:24;103287.97;;;7.11;100.00
15308;BME280;7755;52.208;6.964;2023-02-05T12:04:43;103285.81;;;7.15;100.00
15308;BME280;7755;52.208;6.964;2023-02-05T12:08:50;103281.72;;;7.28;100.00
15308;BME280;7755;52.208;6.964;2023-02-05T12:13:02;103283.88;;;7.43;100.00
15308;BME280;7755;52.208;6.964;2023-02-05T12:17:20;103291.06;;;7.52;100.00
15308;BME280;7755;52.208;6.964;2023-02-05T12:21:34;103299.78;;;7.63;100.00
15308;BME280;7755;52.208;6.964;2023-02-05T12:25:49;103282.94;;;7.52;100.00
15308;BME280;7755;52.208;6.964;2023-02-05T12:30:05;103298.31;;;7.51;100.00
15308;BME280;7755;52.208;6.964;2023-02-05T12:34:21;103301.34;;;7.48;100.00
15308;BME280;7755;52.208;6.964;2023-02-05T12:38:42;103291.53;;;7.47;100.00
15308;BME280;7755;52.208;6.964;2023-02-05T12:42:54;103298.81;;;7.47;100.00
15308;BME280;7755;52.208;6.964;2023-02-05T12:47:10;103317.75;;;7.47;100.00
15308;BME280;7755;52.208;6.964;2023-02-05T12:51:38;103313.66;;;7.43;100.00
15308;BME280;7755;52.208;6.964;2023-02-05T12:55:56;103291.16;;;7.42;100.00
15308;BME280;7755;52.208;6.964;2023-02-05T13:00:11;103278.91;;;7.56;100.00
15308;BME280;7755;52.208;6.964;2023-02-05T13:04:22;103290.53;;;7.66;100.00
15308;BME280;7755;52.208;6.964;2023-02-05T13:08:36;103310.16;;;7.68;100.00
15308;BME280;7755;52.208;6.964;2023-02-05T13:12:44;103311.22;;;7.75;100.00
15308;BME280;7755;52.208;6.964;2023-02-05T13:16:50;103314.16;;;7.82;100.00
15308;BME280;7755;52.208;6.964;2023-02-05T13:21:00;103320.63;;;7.89;100.00
15308;BME280;7755;52.208;6.964;2023-02-05T13:25:25;103335.56;;;7.93;100.00
15308;BME280;7755;52.208;6.964;2023-02-05T13:29:50;103342.06;;;8.00;100.00
15308;BME280;7755;52.208;6.964;2023-02-05T13:33:55;103353.09;;;8.07;100.00
15308;BME280;7755;52.208;6.964;2023-02-05T13:38:16;103354.03;;;7.98;99.72
15308;BME280;7755;52.208;6.964;2023-02-05T13:42:43;103362.97;;;7.90;100.00
15308;BME280;7755;52.208;6.964;2023-02-05T13:47:04;103370.56;;;7.86;99.93
15308;BME280;7755;52.208;6.964;2023-02-05T13:51:37;103371.78;;;7.92;100.00
15308;BME280;7755;52.208;6.964;2023-02-05T13:56:03;103369.59;;;7.96;99.83
15308;BME280;7755;52.208;6.964;2023-02-05T14:00:12;103358.09;;;7.93;100.00
15308;BME280;7755;52.208;6.964;2023-02-05T14:04:20;103373.50;;;7.93;98.07
15308;BME280;7755;52.208;6.964;2023-02-05T14:08:26;103375.88;;;7.96;98.73
15308;BME280;7755;52.208;6.964;2023-02-05T14:12:36;103381.69;;;8.01;98.62
15308;BME280;7755;52.208;6.964;2023-02-05T14:16:39;103378.47;;;8.06;96.45
15308;BME280;7755;52.208;6.964;2023-02-05T14:20:42;103382.38;;;8.03;95.85
15308;BME280;7755;52.208;6.964;2023-02-05T14:24:47;103382.19;;;8.05;96.97
15308;BME280;7755;52.208;6.964;2023-02-05T14:28:51;103387.63;;;8.05;96.21
15308;BME280;7755;52.208;6.964;2023-02-05T14:32:55;103383.44;;;8.10;95.89
15308;BME280;7755;52.208;6.964;2023-02-05T14:36:59;103382.28;;;8.13;96.02
15308;BME280;7755;52.208;6.964;2023-02-05T14:41:08;103389.06;;;8.17;96.20
15308;BME280;7755;52.208;6.964;2023-02-05T14:45:15;103395.84;;;8.13;96.56
15308;BME280;7755;52.208;6.964;2023-02-05T14:49:22;103401.44;;;8.19;96.58
15308;BME280;7755;52.208;6.964;2023-02-05T14:53:25;103401.09;;;8.14;97.35
15308;BME280;7755;52.208;6.964;2023-02-05T14:57:39;103400.88;;;8.08;96.73
15308;BME280;7755;52.208;6.964;2023-02-05T15:01:46;103407.06;;;8.00;96.75
15308;BME280;7755;52.208;6.964;2023-02-05T15:05:53;103405.00;;;7.94;98.08
15308;BME280;7755;52.208;6.964;2023-02-05T15:10:01;103409.41;;;7.95;97.77
15308;BME280;7755;52.208;6.964;2023-02-05T15:14:25;103401.34;;;7.85;97.82
15308;BME280;7755;52.208;6.964;2023-02-05T15:18:37;103414.19;;;7.83;97.79
15308;BME280;7755;52.208;6.964;2023-02-05T15:22:45;103421.00;;;7.87;97.01
15308;BME280;7755;52.208;6.964;2023-02-05T15:26:53;103428.91;;;7.81;96.01
15308;BME280;7755;52.208;6.964;2023-02-05T15:31:15;103430.66;;;7.72;96.79
15308;BME280;7755;52.208;6.964;2023-02-05T15:35:21;103433.84;;;7.68;97.88
15308;BME280;7755;52.208;6.964;2023-02-05T15:39:29;103432.84;;;7.69;98.26
15308;BME280;7755;52.208;6.964;2023-02-05T15:43:33;103444.38;;;7.71;98.18
15308;BME280;7755;52.208;6.964;2023-02-05T15:47:36;103457.38;;;7.67;98.23
15308;BME280;7755;52.208;6.964;2023-02-05T15:51:41;103461.84;;;7.58;98.04
15308;BME280;7755;52.208;6.964;2023-02-05T15:55:46;103469.72;;;7.52;97.54
15308;BME280;7755;52.208;6.964;2023-02-05T15:59:50;103470.47;;;7.44;97.19
15308;BME280;7755;52.208;6.964;2023-02-05T16:03:54;103486.78;;;7.34;96.53
15308;BME280;7755;52.208;6.964;2023-02-05T16:07:58;103483.22;;;7.34;96.95
15308;BME280;7755;52.208;6.964;2023-02-05T16:12:10;103494.72;;;7.18;96.17
15308;BME280;7755;52.208;6.964;2023-02-05T16:16:16;103496.28;;;7.11;95.42
15308;BME280;7755;52.208;6.964;2023-02-05T16:20:27;103498.59;;;7.06;94.81
15308;BME280;7755;52.208;6.964;2023-02-05T16:24:34;103502.59;;;7.02;94.78
15308;BME280;7755;52.208;6.964;2023-02-05T16:28:43;103510.88;;;6.91;96.23
15308;BME280;7755;52.208;6.964;2023-02-05T16:32:47;103505.38;;;6.82;96.97
15308;BME280;7755;52.208;6.964;2023-02-05T16:36:50;103518.34;;;6.79;97.37
15308;BME280;7755;52.208;6.964;2023-02-05T16:40:58;103512.34;;;6.75;97.62
15308;BME280;7755;52.208;6.964;2023-02-05T16:45:07;103529.03;;;6.71;97.65
15308;BME280;7755;52.208;6.964;2023-02-05T16:49:28;103544.84;;;6.66;98.51
15308;BME280;7755;52.208;6.964;2023-02-05T16:53:35;103555.22;;;6.61;98.96
15308;BME280;7755;52.208;6.964;2023-02-05T16:57:40;103567.72;;;6.62;99.81
15308;BME280;7755;52.208;6.964;2023-02-05T17:01:43;103581.94;;;6.64;99.94
15308;BME280;7755;52.208;6.964;2023-02-05T17:05:53;103576.44;;;6.65;100.00
15308;BME280;7755;52.208;6.964;2023-02-05T17:10:15;103586.66;;;6.62;100.00
15308;BME280;7755;52.208;6.964;2023-02-05T17:14:27;103596.78;;;6.60;100.00
15308;BME280;7755;52.208;6.964;2023-02-05T17:18:31;103593.38;;;6.57;100.00
15308;BME280;7755;52.208;6.964;2023-02-05T17:22:35;103605.44;;;6.53;100.00
15308;BME280;7755;52.208;6.964;2023-02-05T17:26:39;103610.00;;;6.53;100.00
15308;BME280;7755;52.208;6.964;2023-02-05T17:30:46;103612.69;;;6.53;100.00
15308;BME280;7755;52.208;6.964;2023-02-05T17:34:49;103617.25;;;6.52;100.00
15308;BME280;7755;52.208;6.964;2023-02-05T17:38:52;103622.06;;;6.49;100.00
15308;BME280;7755;52.208;6.964;2023-02-05T17:42:55;103622.22;;;6.47;100.00
15308;BME280;7755;52.208;6.964;2023-02-05T17:47:00;103627.06;;;6.44;99.87
15308;BME280;7755;52.208;6.964;2023-02-05T17:51:03;103632.03;;;6.48;99.83
15308;BME280;7755;52.208;6.964;2023-02-05T17:55:10;103639.84;;;6.42;100.00
15308;BME280;7755;52.208;6.964;2023-02-05T17:59:16;103649.81;;;6.41;100.00
15308;BME280;7755;52.208;6.964;2023-02-05T18:03:21;103654.09;;;6.44;100.00
15308;BME280;7755;52.208;6.964;2023-02-05T18:07:27;103664.63;;;6.37;100.00
15308;BME280;7755;52.208;6.964;2023-02-05T18:11:31;103658.34;;;6.37;100.00
15308;BME280;7755;52.208;6.964;2023-02-05T18:15:34;103661.72;;;6.29;100.00
15308;BME280;7755;52.208;6.964;2023-02-05T18:19:38;103648.38;;;6.18;100.00
15308;BME280;7755;52.208;6.964;2023-02-05T18:23:41;103648.91;;;6.12;100.00
15308;BME280;7755;52.208;6.964;2023-02-05T18:27:44;103667.06;;;6.00;100.00
15308;BME280;7755;52.208;6.964;2023-02-05T18:31:48;103664.06;;;5.93;100.00
15308;BME280;7755;52.208;6.964;2023-02-05T18:35:53;103673.53;;;5.88;100.00
15308;BME280;7755;52.208;6.964;2023-02-05T18:39:56;103681.47;;;5.80;100.00
15308;BME280;7755;52.208;6.964;2023-02-05T18:43:59;103670.94;;;5.77;100.00
15308;BME280;7755;52.208;6.964;2023-02-05T18:48:01;103687.09;;;5.67;100.00
15308;BME280;7755;52.208;6.964;2023-02-05T18:52:06;103695.31;;;5.65;100.00
15308;BME280;7755;52.208;6.964;2023-02-05T18:56:11;103699.00;;;5.64;100.00
15308;BME280;7755;52.208;6.964;2023-02-05T19:00:15;103703.38;;;5.56;100.00
15308;BME280;7755;52.208;6.964;2023-02-05T19:04:18;103696.38;;;5.53;100.00
15308;BME280;7755;52.208;6.964;2023-02-05T19:08:23;103706.47;;;5.51;100.00
15308;BME280;7755;52.208;6.964;2023-02-05T19:12:26;103709.31;;;5.50;100.00
15308;BME280;7755;52.208;6.964;2023-02-05T19:16:31;103720.63;;;5.43;100.00
15308;BME280;7755;52.208;6.964;2023-02-05T19:20:34;103730.69;;;5.41;100.00
15308;BME280;7755;52.208;6.964;2023-02-05T19:24:39;103727.41;;;5.38;100.00
15308;BME280;7755;52.208;6.964;2023-02-05T19:28:44;103725.69;;;5.37;100.00
15308;BME280;7755;52.208;6.964;2023-02-05T19:32:48;103729.63;;;5.33;100.00
15308;BME280;7755;52.208;6.964;2023-02-05T19:36:51;103726.94;;;5.33;100.00
15308;BME280;7755;52.208;6.964;2023-02-05T19:40:55;103730.91;;;5.29;100.00
15308;BME280;7755;52.208;6.964;2023-02-05T19:44:58;103743.19;;;5.22;100.00
15308;BME280;7755;52.208;6.964;2023-02-05T19:49:02;103744.91;;;5.23;100.00
15308;BME280;7755;52.208;6.964;2023-02-05T19:53:05;103745.16;;;5.19;100.00
15308;BME280;7755;52.208;6.964;2023-02-05T19:57:09;103750.97;;;5.15;100.00
15308;BME280;7755;52.208;6.964;2023-02-05T20:01:13;103750.06;;;5.14;100.00
15308;BME280;7755;52.208;6.964;2023-02-05T20:05:16;103750.22;;;5.13;100.00
15308;BME280;7755;52.208;6.964;2023-02-05T20:09:19;103739.84;;;5.08;100.00
15308;BME280;7755;52.208;6.964;2023-02-05T20:13:26;103731.75;;;5.08;100.00
15308;BME280;7755;52.208;6.964;2023-02-05T20:17:29;103749.16;;;5.04;100.00
15308;BME280;7755;52.208;6.964;2023-02-05T20:21:32;103743.03;;;5.02;100.00
15308;BME280;7755;52.208;6.964;2023-02-05T20:25:35;103740.72;;;4.98;100.00
15308;BME280;7755;52.208;6.964;2023-02-05T20:29:39;103740.25;;;4.92;100.00
15308;BME280;7755;52.208;6.964;2023-02-05T20:34:00;103765.41;;;4.82;100.00
15308;BME280;7755;52.208;6.964;2023-02-05T20:38:03;103758.41;;;4.79;100.00
15308;BME280;7755;52.208;6.964;2023-02-05T20:42:06;103756.00;;;4.76;100.00
15308;BME280;7755;52.208;6.964;2023-02-05T20:46:12;103765.56;;;4.69;100.00
15308;BME280;7755;52.208;6.964;2023-02-05T20:50:15;103779.69;;;4.61;100.00
15308;BME280;7755;52.208;6.964;2023-02-05T20:54:18;103795.34;;;4.56;100.00
15308;BME280;7755;52.208;6.964;2023-02-05T20:58:21;103802.09;;;4.51;100.00
15308;BME280;7755;52.208;6.964;2023-02-05T21:02:25;103794.50;;;4.45;100.00
15308;BME280;7755;52.208;6.964;2023-02-05T21:06:30;103802.00;;;4.41;100.00
15308;BME280;7755;52.208;6.964;2023-02-05T21:10:33;103803.22;;;4.37;100.00
15308;BME280;7755;52.208;6.964;2023-02-05T21:14:36;103797.81;;;4.37;100.00
15308;BME280;7755;52.208;6.964;2023-02-05T21:18:42;103814.25;;;4.34;100.00
15308;BME280;7755;52.208;6.964;2023-02-05T21:22:45;103816.06;;;4.33;100.00
15308;BME280;7755;52.208;6.964;2023-02-05T21:26:49;103810.06;;;4.30;100.00
15308;BME280;7755;52.208;6.964;2023-02-05T21:30:59;103801.38;;;4.26;100.00
15308;BME280;7755;52.208;6.964;2023-02-05T21:35:04;103806.88;;;4.25;100.00
15308;BME280;7755;52.208;6.964;2023-02-05T21:39:08;103808.97;;;4.21;100.00
15308;BME280;7755;52.208;6.964;2023-02-05T21:43:11;103819.75;;;4.21;100.00
15308;BME280;7755;52.208;6.964;2023-02-05T21:47:14;103808.22;;;4.19;100.00
15308;BME280;7755;52.208;6.964;2023-02-05T21:51:20;103807.50;;;4.17;100.00
15308;BME280;7755;52.208;6.964;2023-02-05T21:55:23;103813.25;;;4.13;100.00
15308;BME280;7755;52.208;6.964;2023-02-05T21:59:27;103822.78;;;4.05;100.00
15308;BME280;7755;52.208;6.964;2023-02-05T22:03:30;103834.53;;;4.04;100.00
15308;BME280;7755;52.208;6.964;2023-02-05T22:07:34;103822.19;;;4.02;100.00